sensor_id;sensor_type;location;lat;lon;timestamp;temperature;humidity
21582;DHT22;10952;50.836;4.348;2023-09-19T00:01:08;17.20;99.90
21582;DHT22;10952;50.836;4.348;2023-09-19T00:03:35;17.10;99.90
21582;DHT22;10952;50.836;4.348;2023-09-19T00:06:04;17.10;99.90
21582;DHT22;10952;50.836;4.348;2023-09-19T00:08:33;17.10;99.90
21582;DHT22;10952;50.836;4.348;2023-09-19T00:10:58;17.10;99.90
21582;DHT22;10952;50.836;4.348;2023-09-19T00:13:29;17.10;99.90
21582;DHT22;10952;50.836;4.348;2023-09-19T00:15:56;17.10;99.90
21582;DHT22;10952;50.836;4.348;2023-09-19T00:18:24;17.10;99.90
21582;DHT22;10952;50.836;4.348;2023-09-19T00:21:00;17.00;99.90
21582;DHT22;10952;50.836;4.348;2023-09-19T00:23:26;17.00;99.90
21582;DHT22;10952;50.836;4.348;2023-09-19T00:25:53;17.00;99.90
21582;DHT22;10952;50.836;4.348;2023-09-19T00:28:23;17.00;99.90
21582;DHT22;10952;50.836;4.348;2023-09-19T00:30:48;16.90;99.90
21582;DHT22;10952;50.836;4.348;2023-09-19T00:33:17;16.90;99.90
21582;DHT22;10952;50.836;4.348;2023-09-19T00:35:51;16.90;99.90
21582;DHT22;10952;50.836;4.348;2023-09-19T00:38:17;16.90;99.90
21582;DHT22;10952;50.836;4.348;2023-09-19T00:40:47;16.90;99.90
21582;DHT22;10952;50.836;4.348;2023-09-19T00:43:13;16.90;99.90
21582;DHT22;10952;50.836;4.348;2023-09-19T00:45:39;17.00;99.90
21582;DHT22;10952;50.836;4.348;2023-09-19T00:48:08;17.00;99.90
21582;DHT22;10952;50.836;4.348;2023-09-19T00:50:35;17.00;99.90
21582;DHT22;10952;50.836;4.348;2023-09-19T00:53:01;17.00;99.90
21582;DHT22;10952;50.836;4.348;2023-09-19T00:55:29;17.00;99.90
21582;DHT22;10952;50.836;4.348;2023-09-19T00:57:56;17.10;99.90
21582;DHT22;10952;50.836;4.348;2023-09-19T01:00:22;16.90;99.90
21582;DHT22;10952;50.836;4.348;2023-09-19T01:02:49;16.90;99.90
21582;DHT22;10952;50.836;4.348;2023-09-19T01:05:15;16.80;99.90
21582;DHT22;10952;50.836;4.348;2023-09-19T01:07:41;16.80;99.90
21582;DHT22;10952;50.836;4.348;2023-09-19T01:10:18;16.90;99.90
21582;DHT22;10952;50.836;4.348;2023-09-19T01:32:05;16.70;99.90
21582;DHT22;10952;50.836;4.348;2023-09-19T01:34:48;16.70;99.90
21582;DHT22;10952;50.836;4.348;2023-09-19T01:37:16;16.80;99.90
21582;DHT22;10952;50.836;4.348;2023-09-19T01:40:03;16.80;99.90
21582;DHT22;10952;50.836;4.348;2023-09-19T01:42:57;16.80;99.90
21582;DHT22;10952;50.836;4.348;2023-09-19T01:48:43;16.70;99.90
21582;DHT22;10952;50.836;4.348;2023-09-19T01:51:42;16.60;99.90
21582;DHT22;10952;50.836;4.348;2023-09-19T01:54:07;16.70;99.90
21582;DHT22;10952;50.836;4.348;2023-09-19T01:59:10;16.70;99.90
21582;DHT22;10952;50.836;4.348;2023-09-19T02:01:37;16.70;99.90
21582;DHT22;10952;50.836;4.348;2023-09-19T02:04:04;16.80;99.90
21582;DHT22;10952;50.836;4.348;2023-09-19T02:06:30;16.70;99.90
21582;DHT22;10952;50.836;4.348;2023-09-19T02:08:57;16.70;99.90
21582;DHT22;10952;50.836;4.348;2023-09-19T02:11:22;16.70;99.90
21582;DHT22;10952;50.836;4.348;2023-09-19T02:13:50;16.60;99.90
21582;DHT22;10952;50.836;4.348;2023-09-19T02:16:20;16.70;99.90
21582;DHT22;10952;50.836;4.348;2023-09-19T02:18:48;16.80;99.90
21582;DHT22;10952;50.836;4.348;2023-09-19T02:21:15;16.80;99.90
21582;DHT22;10952;50.836;4.348;2023-09-19T02:23:41;16.80;99.90
21582;DHT22;10952;50.836;4.348;2023-09-19T02:26:06;16.80;99.90
21582;DHT22;10952;50.836;4.348;2023-09-19T02:28:33;16.80;99.90
21582;DHT22;10952;50.836;4.348;2023-09-19T02:30:59;16.80;99.90
21582;DHT22;10952;50.836;4.348;2023-09-19T02:33:25;16.70;99.90
21582;DHT22;10952;50.836;4.348;2023-09-19T02:35:58;16.70;99.90
21582;DHT22;10952;50.836;4.348;2023-09-19T02:38:24;16.80;99.90
21582;DHT22;10952;50.836;4.348;2023-09-19T02:40:52;16.80;99.90
21582;DHT22;10952;50.836;4.348;2023-09-19T02:43:18;16.80;99.90
21582;DHT22;10952;50.836;4.348;2023-09-19T02:45:45;16.70;99.90
21582;DHT22;10952;50.836;4.348;2023-09-19T02:48:22;16.70;99.90
21582;DHT22;10952;50.836;4.348;2023-09-19T02:50:50;16.70;99.90
21582;DHT22;10952;50.836;4.348;2023-09-19T02:53:16;16.70;99.90
21582;DHT22;10952;50.836;4.348;2023-09-19T02:55:42;16.70;99.90
21582;DHT22;10952;50.836;4.348;2023-09-19T02:58:08;16.70;99.90
21582;DHT22;10952;50.836;4.348;2023-09-19T03:00:37;16.70;99.90
21582;DHT22;10952;50.836;4.348;2023-09-19T03:03:03;16.60;99.90
21582;DHT22;10952;50.836;4.348;2023-09-19T03:05:30;16.50;99.90
21582;DHT22;10952;50.836;4.348;2023-09-19T03:07:57;16.60;99.90
21582;DHT22;10952;50.836;4.348;2023-09-19T03:10:28;16.60;99.90
21582;DHT22;10952;50.836;4.348;2023-09-19T03:12:54;16.60;99.90
21582;DHT22;10952;50.836;4.348;2023-09-19T03:15:20;16.60;99.90
21582;DHT22;10952;50.836;4.348;2023-09-19T03:17:48;16.60;99.90
21582;DHT22;10952;50.836;4.348;2023-09-19T03:20:15;16.60;99.90
21582;DHT22;10952;50.836;4.348;2023-09-19T03:22:43;16.70;99.90
21582;DHT22;10952;50.836;4.348;2023-09-19T03:25:09;16.60;99.90
21582;DHT22;10952;50.836;4.348;2023-09-19T03:27:41;16.40;99.90
21582;DHT22;10952;50.836;4.348;2023-09-19T03:30:07;16.30;99.90
21582;DHT22;10952;50.836;4.348;2023-09-19T03:32:48;16.30;99.90
21582;DHT22;10952;50.836;4.348;2023-09-19T03:35:16;16.30;99.90
21582;DHT22;10952;50.836;4.348;2023-09-19T03:37:43;16.40;99.90
21582;DHT22;10952;50.836;4.348;2023-09-19T03:40:09;16.40;99.90
21582;DHT22;10952;50.836;4.348;2023-09-19T03:42:42;16.30;99.90
21582;DHT22;10952;50.836;4.348;2023-09-19T03:45:10;16.20;99.90
21582;DHT22;10952;50.836;4.348;2023-09-19T03:47:41;16.30;99.90
21582;DHT22;10952;50.836;4.348;2023-09-19T03:50:07;16.40;99.90
21582;DHT22;10952;50.836;4.348;2023-09-19T03:52:36;16.30;99.90
21582;DHT22;10952;50.836;4.348;2023-09-19T03:55:02;16.30;99.90
21582;DHT22;10952;50.836;4.348;2023-09-19T03:57:29;16.30;99.90
21582;DHT22;10952;50.836;4.348;2023-09-19T03:59:55;16.30;99.90
21582;DHT22;10952;50.836;4.348;2023-09-19T04:02:21;16.20;99.90
21582;DHT22;10952;50.836;4.348;2023-09-19T04:04:48;16.10;99.90
21582;DHT22;10952;50.836;4.348;2023-09-19T04:07:14;16.10;99.90
21582;DHT22;10952;50.836;4.348;2023-09-19T04:09:40;16.10;99.90
21582;DHT22;10952;50.836;4.348;2023-09-19T04:12:07;16.20;99.90
21582;DHT22;10952;50.836;4.348;2023-09-19T04:14:34;16.00;99.90
21582;DHT22;10952;50.836;4.348;2023-09-19T04:17:00;16.10;99.90
21582;DHT22;10952;50.836;4.348;2023-09-19T04:19:26;16.10;99.90
21582;DHT22;10952;50.836;4.348;2023-09-19T04:21:52;16.10;99.90
21582;DHT22;10952;50.836;4.348;2023-09-19T04:24:18;16.20;99.90
21582;DHT22;10952;50.836;4.348;2023-09-19T04:26:45;16.20;99.90
21582;DHT22;10952;50.836;4.348;2023-09-19T04:29:11;16.20;99.90
21582;DHT22;10952;50.836;4.348;2023-09-19T04:31:39;16.10;99.90
21582;DHT22;10952;50.836;4.348;2023-09-19T04:34:06;16.10;99.90
21582;DHT22;10952;50.836;4.348;2023-09-19T04:36:31;16.10;99.90
21582;DHT22;10952;50.836;4.348;2023-09-19T04:38:57;16.10;99.90
21582;DHT22;10952;50.836;4.348;2023-09-19T04:41:23;16.00;99.90
21582;DHT22;10952;50.836;4.348;2023-09-19T04:43:50;15.90;99.90
21582;DHT22;10952;50.836;4.348;2023-09-19T04:46:16;15.90;99.90
21582;DHT22;10952;50.836;4.348;2023-09-19T04:48:43;15.90;99.90
21582;DHT22;10952;50.836;4.348;2023-09-19T04:51:09;15.90;99.90
21582;DHT22;10952;50.836;4.348;2023-09-19T04:53:36;15.90;99.90
21582;DHT22;10952;50.836;4.348;2023-09-19T04:56:03;16.00;99.90
21582;DHT22;10952;50.836;4.348;2023-09-19T04:58:29;16.00;99.90
21582;DHT22;10952;50.836;4.348;2023-09-19T05:00:55;16.00;99.90
21582;DHT22;10952;50.836;4.348;2023-09-19T05:03:22;16.00;99.90
21582;DHT22;10952;50.836;4.348;2023-09-19T05:05:48;15.90;99.90
21582;DHT22;10952;50.836;4.348;2023-09-19T05:08:14;15.90;99.90
21582;DHT22;10952;50.836;4.348;2023-09-19T05:10:40;15.90;99.90
21582;DHT22;10952;50.836;4.348;2023-09-19T05:13:07;15.80;99.90
21582;DHT22;10952;50.836;4.348;2023-09-19T05:15:33;15.80;99.90
21582;DHT22;10952;50.836;4.348;2023-09-19T05:18:01;15.80;99.90
21582;DHT22;10952;50.836;4.348;2023-09-19T05:20:27;15.80;99.90
21582;DHT22;10952;50.836;4.348;2023-09-19T05:25:37;15.80;99.90
21582;DHT22;10952;50.836;4.348;2023-09-19T05:28:07;15.90;99.90
21582;DHT22;10952;50.836;4.348;2023-09-19T05:30:37;15.80;99.90
21582;DHT22;10952;50.836;4.348;2023-09-19T05:33:09;15.80;99.90
21582;DHT22;10952;50.836;4.348;2023-09-19T05:35:35;15.90;99.90
21582;DHT22;10952;50.836;4.348;2023-09-19T05:38:05;15.80;99.90
21582;DHT22;10952;50.836;4.348;2023-09-19T05:40:34;15.90;99.90
21582;DHT22;10952;50.836;4.348;2023-09-19T05:43:00;15.90;99.90
21582;DHT22;10952;50.836;4.348;2023-09-19T05:45:26;16.00;99.90
21582;DHT22;10952;50.836;4.348;2023-09-19T05:47:53;16.00;99.90
21582;DHT22;10952;50.836;4.348;2023-09-19T05:50:27;15.90;99.90
21582;DHT22;10952;50.836;4.348;2023-09-19T05:52:54;16.00;99.90
21582;DHT22;10952;50.836;4.348;2023-09-19T05:55:22;16.00;99.90
21582;DHT22;10952;50.836;4.348;2023-09-19T05:57:53;16.10;99.90
21582;DHT22;10952;50.836;4.348;2023-09-19T06:00:20;16.00;99.90
21582;DHT22;10952;50.836;4.348;2023-09-19T06:02:58;16.10;99.90
21582;DHT22;10952;50.836;4.348;2023-09-19T06:05:25;16.10;99.90
21582;DHT22;10952;50.836;4.348;2023-09-19T06:07:55;16.20;99.90
21582;DHT22;10952;50.836;4.348;2023-09-19T06:10:26;16.20;99.90
21582;DHT22;10952;50.836;4.348;2023-09-19T06:12:53;16.30;99.90
21582;DHT22;10952;50.836;4.348;2023-09-19T06:15:21;16.20;99.90
21582;DHT22;10952;50.836;4.348;2023-09-19T06:17:52;16.20;99.90
21582;DHT22;10952;50.836;4.348;2023-09-19T06:20:22;16.20;99.90
21582;DHT22;10952;50.836;4.348;2023-09-19T06:22:48;16.30;99.90
21582;DHT22;10952;50.836;4.348;2023-09-19T06:25:16;16.30;99.90
21582;DHT22;10952;50.836;4.348;2023-09-19T06:27:52;16.30;99.90
21582;DHT22;10952;50.836;4.348;2023-09-19T06:30:20;16.40;99.90
21582;DHT22;10952;50.836;4.348;2023-09-19T06:32:46;16.50;99.90
21582;DHT22;10952;50.836;4.348;2023-09-19T06:35:15;16.50;99.90
21582;DHT22;10952;50.836;4.348;2023-09-19T06:37:42;16.50;99.90
21582;DHT22;10952;50.836;4.348;2023-09-19T06:40:09;16.50;99.90
21582;DHT22;10952;50.836;4.348;2023-09-19T06:42:44;16.60;99.90
21582;DHT22;10952;50.836;4.348;2023-09-19T06:45:11;16.70;99.90
21582;DHT22;10952;50.836;4.348;2023-09-19T06:47:39;16.70;99.90
21582;DHT22;10952;50.836;4.348;2023-09-19T06:50:06;16.70;99.90
21582;DHT22;10952;50.836;4.348;2023-09-19T06:52:34;16.60;99.90
21582;DHT22;10952;50.836;4.348;2023-09-19T06:55:00;16.60;99.90
21582;DHT22;10952;50.836;4.348;2023-09-19T06:57:28;16.60;99.90
21582;DHT22;10952;50.836;4.348;2023-09-19T06:59:56;16.60;99.90
21582;DHT22;10952;50.836;4.348;2023-09-19T07:02:21;16.70;99.90
21582;DHT22;10952;50.836;4.348;2023-09-19T07:04:47;16.60;99.90
21582;DHT22;10952;50.836;4.348;2023-09-19T07:07:13;16.50;99.90
21582;DHT22;10952;50.836;4.348;2023-09-19T07:09:39;16.60;99.90
21582;DHT22;10952;50.836;4.348;2023-09-19T07:12:05;16.60;99.90
21582;DHT22;10952;50.836;4.348;2023-09-19T07:14:31;16.60;99.90
21582;DHT22;10952;50.836;4.348;2023-09-19T07:16:58;16.50;99.90
21582;DHT22;10952;50.836;4.348;2023-09-19T07:19:25;16.60;99.90
21582;DHT22;10952;50.836;4.348;2023-09-19T07:21:54;16.60;99.90
21582;DHT22;10952;50.836;4.348;2023-09-19T07:24:19;16.60;99.90
21582;DHT22;10952;50.836;4.348;2023-09-19T07:26:47;16.70;99.90
21582;DHT22;10952;50.836;4.348;2023-09-19T07:29:14;16.60;99.90
21582;DHT22;10952;50.836;4.348;2023-09-19T07:31:39;16.70;99.90
21582;DHT22;10952;50.836;4.348;2023-09-19T07:34:05;16.80;99.90
21582;DHT22;10952;50.836;4.348;2023-09-19T07:36:34;16.80;99.90
21582;DHT22;10952;50.836;4.348;2023-09-19T07:39:00;16.90;99.90
21582;DHT22;10952;50.836;4.348;2023-09-19T07:41:25;17.00;99.90
21582;DHT22;10952;50.836;4.348;2023-09-19T07:43:51;17.10;99.90
21582;DHT22;10952;50.836;4.348;2023-09-19T07:46:17;17.20;99.90
21582;DHT22;10952;50.836;4.348;2023-09-19T07:48:44;17.00;99.90
21582;DHT22;10952;50.836;4.348;2023-09-19T07:51:14;16.90;99.90
21582;DHT22;10952;50.836;4.348;2023-09-19T07:53:42;17.00;99.90
21582;DHT22;10952;50.836;4.348;2023-09-19T07:56:08;17.00;99.90
21582;DHT22;10952;50.836;4.348;2023-09-19T07:58:35;17.10;99.90
21582;DHT22;10952;50.836;4.348;2023-09-19T08:01:10;17.10;99.90
21582;DHT22;10952;50.836;4.348;2023-09-19T08:03:39;17.20;99.90
21582;DHT22;10952;50.836;4.348;2023-09-19T08:06:08;17.10;99.90
21582;DHT22;10952;50.836;4.348;2023-09-19T08:08:35;17.10;99.90
21582;DHT22;10952;50.836;4.348;2023-09-19T08:11:05;17.10;99.90
21582;DHT22;10952;50.836;4.348;2023-09-19T08:13:39;17.30;99.90
21582;DHT22;10952;50.836;4.348;2023-09-19T08:16:09;17.40;99.90
21582;DHT22;10952;50.836;4.348;2023-09-19T08:18:36;17.40;99.90
21582;DHT22;10952;50.836;4.348;2023-09-19T08:21:05;17.40;99.90
21582;DHT22;10952;50.836;4.348;2023-09-19T08:23:39;17.50;99.90
21582;DHT22;10952;50.836;4.348;2023-09-19T08:26:05;17.60;99.90
21582;DHT22;10952;50.836;4.348;2023-09-19T08:28:34;17.60;99.90
21582;DHT22;10952;50.836;4.348;2023-09-19T08:31:04;17.70;99.90
21582;DHT22;10952;50.836;4.348;2023-09-19T08:33:35;17.70;99.90
21582;DHT22;10952;50.836;4.348;2023-09-19T08:36:04;17.70;99.90
21582;DHT22;10952;50.836;4.348;2023-09-19T08:38:34;17.80;99.90
21582;DHT22;10952;50.836;4.348;2023-09-19T08:41:05;17.90;99.90
21582;DHT22;10952;50.836;4.348;2023-09-19T08:43:30;18.00;99.90
21582;DHT22;10952;50.836;4.348;2023-09-19T08:46:20;18.10;99.90
21582;DHT22;10952;50.836;4.348;2023-09-19T08:51:27;18.10;99.90
21582;DHT22;10952;50.836;4.348;2023-09-19T08:56:26;18.40;99.90
21582;DHT22;10952;50.836;4.348;2023-09-19T08:58:57;18.50;99.90
21582;DHT22;10952;50.836;4.348;2023-09-19T09:01:27;18.60;99.90
21582;DHT22;10952;50.836;4.348;2023-09-19T09:03:54;18.50;99.90
21582;DHT22;10952;50.836;4.348;2023-09-19T09:06:20;18.60;99.90
21582;DHT22;10952;50.836;4.348;2023-09-19T09:08:46;18.60;99.90
21582;DHT22;10952;50.836;4.348;2023-09-19T09:11:15;18.70;99.90
21582;DHT22;10952;50.836;4.348;2023-09-19T09:13:43;18.80;99.90
21582;DHT22;10952;50.836;4.348;2023-09-19T09:16:10;19.00;99.90
21582;DHT22;10952;50.836;4.348;2023-09-19T09:18:36;19.20;99.90
21582;DHT22;10952;50.836;4.348;2023-09-19T09:21:02;19.20;99.90
21582;DHT22;10952;50.836;4.348;2023-09-19T09:23:30;19.20;99.90
21582;DHT22;10952;50.836;4.348;2023-09-19T09:25:58;19.30;99.90
21582;DHT22;10952;50.836;4.348;2023-09-19T09:28:29;19.40;99.90
21582;DHT22;10952;50.836;4.348;2023-09-19T09:30:56;19.50;99.90
21582;DHT22;10952;50.836;4.348;2023-09-19T09:33:24;19.70;99.90
21582;DHT22;10952;50.836;4.348;2023-09-19T09:35:58;19.70;99.90
21582;DHT22;10952;50.836;4.348;2023-09-19T09:38:46;19.60;99.90
21582;DHT22;10952;50.836;4.348;2023-09-19T09:41:12;19.60;99.90
21582;DHT22;10952;50.836;4.348;2023-09-19T09:43:42;19.80;99.90
21582;DHT22;10952;50.836;4.348;2023-09-19T09:46:18;20.00;99.90
21582;DHT22;10952;50.836;4.348;2023-09-19T09:52:05;20.00;99.90
21582;DHT22;10952;50.836;4.348;2023-09-19T09:54:35;19.70;99.90
21582;DHT22;10952;50.836;4.348;2023-09-19T09:57:10;19.70;99.90
21582;DHT22;10952;50.836;4.348;2023-09-19T09:59:52;19.80;99.90
21582;DHT22;10952;50.836;4.348;2023-09-19T10:02:30;19.80;99.90
21582;DHT22;10952;50.836;4.348;2023-09-19T10:05:16;19.60;99.90
21582;DHT22;10952;50.836;4.348;2023-09-19T10:07:49;19.50;99.90
21582;DHT22;10952;50.836;4.348;2023-09-19T10:10:37;19.70;99.90
21582;DHT22;10952;50.836;4.348;2023-09-19T10:13:07;19.80;99.90
21582;DHT22;10952;50.836;4.348;2023-09-19T10:15:33;19.90;99.90
21582;DHT22;10952;50.836;4.348;2023-09-19T10:18:04;19.90;99.90
21582;DHT22;10952;50.836;4.348;2023-09-19T10:20:31;19.80;99.90
21582;DHT22;10952;50.836;4.348;2023-09-19T10:23:07;19.90;99.90
21582;DHT22;10952;50.836;4.348;2023-09-19T10:25:47;20.00;99.90
21582;DHT22;10952;50.836;4.348;2023-09-19T10:28:15;19.90;99.90
21582;DHT22;10952;50.836;4.348;2023-09-19T10:30:42;19.80;99.90
21582;DHT22;10952;50.836;4.348;2023-09-19T10:33:24;19.90;99.90
21582;DHT22;10952;50.836;4.348;2023-09-19T10:35:53;20.20;99.90
21582;DHT22;10952;50.836;4.348;2023-09-19T10:38:27;20.20;99.90
21582;DHT22;10952;50.836;4.348;2023-09-19T10:40:55;20.30;99.90
21582;DHT22;10952;50.836;4.348;2023-09-19T10:43:33;20.50;99.90
21582;DHT22;10952;50.836;4.348;2023-09-19T10:46:07;20.50;99.90
21582;DHT22;10952;50.836;4.348;2023-09-19T10:48:33;20.80;99.90
21582;DHT22;10952;50.836;4.348;2023-09-19T10:51:11;20.80;99.90
21582;DHT22;10952;50.836;4.348;2023-09-19T10:53:49;20.80;99.90
21582;DHT22;10952;50.836;4.348;2023-09-19T10:56:20;21.20;99.90
21582;DHT22;10952;50.836;4.348;2023-09-19T10:58:47;21.80;99.90
21582;DHT22;10952;50.836;4.348;2023-09-19T11:01:14;22.20;99.90
21582;DHT22;10952;50.836;4.348;2023-09-19T11:03:41;23.10;99.90
21582;DHT22;10952;50.836;4.348;2023-09-19T11:06:17;23.80;99.90
21582;DHT22;10952;50.836;4.348;2023-09-19T11:09:03;24.60;99.90
21582;DHT22;10952;50.836;4.348;2023-09-19T11:11:43;25.80;99.90
21582;DHT22;10952;50.836;4.348;2023-09-19T11:30:39;25.10;99.90
21582;DHT22;10952;50.836;4.348;2023-09-19T11:33:18;24.50;99.90
21582;DHT22;10952;50.836;4.348;2023-09-19T11:43:48;23.60;99.90
21582;DHT22;10952;50.836;4.348;2023-09-19T11:46:14;23.60;99.90
21582;DHT22;10952;50.836;4.348;2023-09-19T11:48:48;23.20;99.90
21582;DHT22;10952;50.836;4.348;2023-09-19T11:51:15;23.30;99.90
21582;DHT22;10952;50.836;4.348;2023-09-19T11:53:52;23.20;99.90
21582;DHT22;10952;50.836;4.348;2023-09-19T11:56:19;23.30;99.90
21582;DHT22;10952;50.836;4.348;2023-09-19T11:58:46;23.40;99.90
21582;DHT22;10952;50.836;4.348;2023-09-19T12:01:42;23.20;99.90
21582;DHT22;10952;50.836;4.348;2023-09-19T12:04:11;23.10;99.90
21582;DHT22;10952;50.836;4.348;2023-09-19T12:06:37;23.00;99.90
21582;DHT22;10952;50.836;4.348;2023-09-19T12:09:13;22.70;99.90
21582;DHT22;10952;50.836;4.348;2023-09-19T12:11:42;22.20;99.90
21582;DHT22;10952;50.836;4.348;2023-09-19T12:14:11;22.00;99.90
21582;DHT22;10952;50.836;4.348;2023-09-19T12:16:55;21.80;99.90
21582;DHT22;10952;50.836;4.348;2023-09-19T12:19:21;21.80;99.90
21582;DHT22;10952;50.836;4.348;2023-09-19T12:22:02;21.90;99.90
21582;DHT22;10952;50.836;4.348;2023-09-19T12:24:32;21.90;99.90
21582;DHT22;10952;50.836;4.348;2023-09-19T12:27:03;22.10;99.90
21582;DHT22;10952;50.836;4.348;2023-09-19T12:29:32;22.20;99.90
21582;DHT22;10952;50.836;4.348;2023-09-19T12:32:00;22.10;99.90
21582;DHT22;10952;50.836;4.348;2023-09-19T12:34:33;22.20;99.90
21582;DHT22;10952;50.836;4.348;2023-09-19T12:37:14;21.90;99.90
21582;DHT22;10952;50.836;4.348;2023-09-19T12:39:48;21.90;99.90
21582;DHT22;10952;50.836;4.348;2023-09-19T12:42:16;21.80;99.90
21582;DHT22;10952;50.836;4.348;2023-09-19T12:44:44;21.60;99.90
21582;DHT22;10952;50.836;4.348;2023-09-19T12:47:15;21.80;99.90
21582;DHT22;10952;50.836;4.348;2023-09-19T12:52:39;22.10;99.90
21582;DHT22;10952;50.836;4.348;2023-09-19T12:55:06;22.10;99.90
21582;DHT22;10952;50.836;4.348;2023-09-19T12:57:36;22.10;99.90
21582;DHT22;10952;50.836;4.348;2023-09-19T13:00:06;22.10;99.90
21582;DHT22;10952;50.836;4.348;2023-09-19T13:02:33;22.00;99.90
21582;DHT22;10952;50.836;4.348;2023-09-19T13:04:58;21.90;99.90
21582;DHT22;10952;50.836;4.348;2023-09-19T13:07:54;21.90;99.90
21582;DHT22;10952;50.836;4.348;2023-09-19T13:10:20;22.00;99.90
21582;DHT22;10952;50.836;4.348;2023-09-19T13:12:49;22.00;99.90
21582;DHT22;10952;50.836;4.348;2023-09-19T13:15:15;22.10;99.90
21582;DHT22;10952;50.836;4.348;2023-09-19T13:17:49;21.90;99.90
21582;DHT22;10952;50.836;4.348;2023-09-19T13:20:25;21.90;99.90
21582;DHT22;10952;50.836;4.348;2023-09-19T13:22:55;22.10;99.90
21582;DHT22;10952;50.836;4.348;2023-09-19T13:25:25;22.10;99.90
21582;DHT22;10952;50.836;4.348;2023-09-19T13:27:53;22.20;99.90
21582;DHT22;10952;50.836;4.348;2023-09-19T13:30:22;22.40;99.90
21582;DHT22;10952;50.836;4.348;2023-09-19T13:32:48;22.30;99.90
21582;DHT22;10952;50.836;4.348;2023-09-19T13:35:15;22.30;99.90
21582;DHT22;10952;50.836;4.348;2023-09-19T13:37:42;22.30;99.90
21582;DHT22;10952;50.836;4.348;2023-09-19T13:40:12;22.20;99.90
21582;DHT22;10952;50.836;4.348;2023-09-19T13:42:38;22.30;99.90
21582;DHT22;10952;50.836;4.348;2023-09-19T13:45:06;22.30;99.90
21582;DHT22;10952;50.836;4.348;2023-09-19T13:47:36;22.40;99.90
21582;DHT22;10952;50.836;4.348;2023-09-19T13:50:03;22.30;99.90
21582;DHT22;10952;50.836;4.348;2023-09-19T13:52:32;22.10;99.90
21582;DHT22;10952;50.836;4.348;2023-09-19T13:54:59;22.00;99.90
21582;DHT22;10952;50.836;4.348;2023-09-19T13:57:25;22.00;99.90
21582;DHT22;10952;50.836;4.348;2023-09-19T13:59:52;22.00;99.90
21582;DHT22;10952;50.836;4.348;2023-09-19T14:02:20;21.90;99.90
21582;DHT22;10952;50.836;4.348;2023-09-19T14:04:48;21.50;99.90
21582;DHT22;10952;50.836;4.348;2023-09-19T14:07:15;21.60;99.90
21582;DHT22;10952;50.836;4.348;2023-09-19T14:09:41;21.80;99.90
21582;DHT22;10952;50.836;4.348;2023-09-19T14:12:07;21.80;99.90
21582;DHT22;10952;50.836;4.348;2023-09-19T14:14:32;21.80;99.90
21582;DHT22;10952;50.836;4.348;2023-09-19T14:16:58;21.80;99.90
21582;DHT22;10952;50.836;4.348;2023-09-19T14:19:27;21.90;99.90
21582;DHT22;10952;50.836;4.348;2023-09-19T14:21:53;21.90;99.90
21582;DHT22;10952;50.836;4.348;2023-09-19T14:24:21;21.90;99.90
21582;DHT22;10952;50.836;4.348;2023-09-19T14:26:47;22.00;99.90
21582;DHT22;10952;50.836;4.348;2023-09-19T14:29:15;22.10;99.90
21582;DHT22;10952;50.836;4.348;2023-09-19T14:31:41;22.00;99.90
21582;DHT22;10952;50.836;4.348;2023-09-19T14:34:07;22.10;99.90
21582;DHT22;10952;50.836;4.348;2023-09-19T14:36:36;22.20;99.90
21582;DHT22;10952;50.836;4.348;2023-09-19T14:39:02;22.40;99.90
21582;DHT22;10952;50.836;4.348;2023-09-19T14:41:28;22.60;99.90
21582;DHT22;10952;50.836;4.348;2023-09-19T14:43:54;22.40;99.90
21582;DHT22;10952;50.836;4.348;2023-09-19T14:46:22;22.00;99.90
21582;DHT22;10952;50.836;4.348;2023-09-19T14:48:51;21.90;99.90
21582;DHT22;10952;50.836;4.348;2023-09-19T14:51:17;21.90;99.90
21582;DHT22;10952;50.836;4.348;2023-09-19T14:53:45;21.90;99.90
21582;DHT22;10952;50.836;4.348;2023-09-19T14:56:11;21.90;99.90
21582;DHT22;10952;50.836;4.348;2023-09-19T14:58:38;21.80;99.90
21582;DHT22;10952;50.836;4.348;2023-09-19T15:01:06;21.70;99.90
21582;DHT22;10952;50.836;4.348;2023-09-19T15:03:34;21.70;99.90
21582;DHT22;10952;50.836;4.348;2023-09-19T15:06:05;21.60;99.90
21582;DHT22;10952;50.836;4.348;2023-09-19T15:08:32;21.60;99.90
21582;DHT22;10952;50.836;4.348;2023-09-19T15:11:03;21.70;99.90
21582;DHT22;10952;50.836;4.348;2023-09-19T15:13:31;21.80;99.90
21582;DHT22;10952;50.836;4.348;2023-09-19T15:16:05;21.80;99.90
21582;DHT22;10952;50.836;4.348;2023-09-19T15:18:37;21.80;99.90
21582;DHT22;10952;50.836;4.348;2023-09-19T15:21:04;21.80;99.90
21582;DHT22;10952;50.836;4.348;2023-09-19T15:23:33;21.50;99.90
21582;DHT22;10952;50.836;4.348;2023-09-19T15:26:06;21.50;99.90
21582;DHT22;10952;50.836;4.348;2023-09-19T15:28:34;21.40;99.90
21582;DHT22;10952;50.836;4.348;2023-09-19T15:33:30;21.40;99.90
21582;DHT22;10952;50.836;4.348;2023-09-19T15:36:09;21.40;99.90
21582;DHT22;10952;50.836;4.348;2023-09-19T15:39:00;21.40;99.90
21582;DHT22;10952;50.836;4.348;2023-09-19T15:41:31;21.10;99.90
21582;DHT22;10952;50.836;4.348;2023-09-19T15:43:57;21.00;99.90
21582;DHT22;10952;50.836;4.348;2023-09-19T15:46:27;21.00;99.90
21582;DHT22;10952;50.836;4.348;2023-09-19T15:48:53;21.10;99.90
21582;DHT22;10952;50.836;4.348;2023-09-19T15:51:19;21.00;99.90
21582;DHT22;10952;50.836;4.348;2023-09-19T15:53:46;20.90;99.90
21582;DHT22;10952;50.836;4.348;2023-09-19T15:56:13;20.80;99.90
21582;DHT22;10952;50.836;4.348;2023-09-19T15:58:49;20.90;99.90
21582;DHT22;10952;50.836;4.348;2023-09-19T16:01:15;20.80;99.90
21582;DHT22;10952;50.836;4.348;2023-09-19T16:03:47;20.80;99.90
21582;DHT22;10952;50.836;4.348;2023-09-19T16:06:15;20.80;99.90
21582;DHT22;10952;50.836;4.348;2023-09-19T16:08:42;20.80;99.90
21582;DHT22;10952;50.836;4.348;2023-09-19T16:11:09;20.80;99.90
21582;DHT22;10952;50.836;4.348;2023-09-19T16:13:38;20.90;99.90
21582;DHT22;10952;50.836;4.348;2023-09-19T16:16:04;20.90;99.90
21582;DHT22;10952;50.836;4.348;2023-09-19T16:18:30;20.80;99.90
21582;DHT22;10952;50.836;4.348;2023-09-19T16:21:06;20.70;99.90
21582;DHT22;10952;50.836;4.348;2023-09-19T16:23:35;20.80;99.90
21582;DHT22;10952;50.836;4.348;2023-09-19T16:26:05;20.70;99.90
21582;DHT22;10952;50.836;4.348;2023-09-19T16:28:32;20.60;99.90
21582;DHT22;10952;50.836;4.348;2023-09-19T16:31:00;20.70;99.90
21582;DHT22;10952;50.836;4.348;2023-09-19T16:33:29;20.60;99.90
21582;DHT22;10952;50.836;4.348;2023-09-19T16:35:55;20.60;99.90
21582;DHT22;10952;50.836;4.348;2023-09-19T16:38:22;20.50;99.90
21582;DHT22;10952;50.836;4.348;2023-09-19T16:40:58;20.40;99.90
21582;DHT22;10952;50.836;4.348;2023-09-19T16:43:26;20.30;99.90
21582;DHT22;10952;50.836;4.348;2023-09-19T16:48:18;20.30;99.90
21582;DHT22;10952;50.836;4.348;2023-09-19T16:50:44;20.30;99.90